sensor_id;sensor_type;location;lat;lon;timestamp;P1;durP1;ratioP1;P2;durP2;ratioP2
52170;SDS011;38689;47.552;18.820;2023-09-19T00:00:45;11.27;;;6.10;;
52170;SDS011;38689;47.552;18.820;2023-09-19T00:03:15;9.32;;;6.60;;
52170;SDS011;38689;47.552;18.820;2023-09-19T00:05:42;11.12;;;6.30;;
52170;SDS011;38689;47.552;18.820;2023-09-19T00:08:11;11.18;;;6.32;;
52170;SDS011;38689;47.552;18.820;2023-09-19T00:10:39;10.48;;;6.25;;
52170;SDS011;38689;47.552;18.820;2023-09-19T00:13:06;14.87;;;6.57;;
52170;SDS011;38689;47.552;18.820;2023-09-19T00:15:39;9.88;;;6.43;;
52170;SDS011;38689;47.552;18.820;2023-09-19T00:18:06;13.82;;;7.10;;
52170;SDS011;38689;47.552;18.820;2023-09-19T00:20:37;13.13;;;6.55;;
52170;SDS011;38689;47.552;18.820;2023-09-19T00:23:04;13.35;;;6.53;;
52170;SDS011;38689;47.552;18.820;2023-09-19T00:25:35;10.57;;;6.32;;
52170;SDS011;38689;47.552;18.820;2023-09-19T00:28:01;13.65;;;6.35;;
52170;SDS011;38689;47.552;18.820;2023-09-19T00:30:28;7.95;;;5.93;;
52170;SDS011;38689;47.552;18.820;2023-09-19T00:32:54;10.18;;;6.32;;
52170;SDS011;38689;47.552;18.820;2023-09-19T00:35:20;11.12;;;7.22;;
52170;SDS011;38689;47.552;18.820;2023-09-19T00:37:50;9.93;;;6.37;;
52170;SDS011;38689;47.552;18.820;2023-09-19T00:40:16;10.55;;;6.75;;
52170;SDS011;38689;47.552;18.820;2023-09-19T00:42:43;9.80;;;6.40;;
52170;SDS011;38689;47.552;18.820;2023-09-19T00:45:13;14.27;;;6.03;;
52170;SDS011;38689;47.552;18.820;2023-09-19T00:47:45;10.40;;;6.07;;
52170;SDS011;38689;47.552;18.820;2023-09-19T00:50:16;10.80;;;6.70;;
52170;SDS011;38689;47.552;18.820;2023-09-19T00:52:43;12.75;;;6.80;;
52170;SDS011;38689;47.552;18.820;2023-09-19T00:55:09;13.75;;;6.30;;
52170;SDS011;38689;47.552;18.820;2023-09-19T00:57:37;11.18;;;6.82;;
52170;SDS011;38689;47.552;18.820;2023-09-19T01:00:04;11.18;;;7.00;;
52170;SDS011;38689;47.552;18.820;2023-09-19T01:02:34;10.60;;;6.57;;
52170;SDS011;38689;47.552;18.820;2023-09-19T01:05:01;10.68;;;6.75;;
52170;SDS011;38689;47.552;18.820;2023-09-19T01:07:27;13.00;;;7.22;;
52170;SDS011;38689;47.552;18.820;2023-09-19T01:09:58;11.18;;;6.60;;
52170;SDS011;38689;47.552;18.820;2023-09-19T01:21:11;12.15;;;6.78;;
52170;SDS011;38689;47.552;18.820;2023-09-19T01:32:17;10.18;;;7.03;;
52170;SDS011;38689;47.552;18.820;2023-09-19T01:37:29;12.98;;;7.50;;
52170;SDS011;38689;47.552;18.820;2023-09-19T01:45:24;12.88;;;7.28;;
52170;SDS011;38689;47.552;18.820;2023-09-19T01:50:42;15.40;;;7.62;;
52170;SDS011;38689;47.552;18.820;2023-09-19T01:53:13;11.68;;;7.55;;
52170;SDS011;38689;47.552;18.820;2023-09-19T01:55:47;13.15;;;7.25;;
52170;SDS011;38689;47.552;18.820;2023-09-19T01:58:21;12.37;;;7.35;;
52170;SDS011;38689;47.552;18.820;2023-09-19T02:00:53;9.77;;;7.32;;
52170;SDS011;38689;47.552;18.820;2023-09-19T02:03:21;12.10;;;7.50;;
52170;SDS011;38689;47.552;18.820;2023-09-19T02:05:51;12.35;;;7.78;;
52170;SDS011;38689;47.552;18.820;2023-09-19T02:08:19;14.02;;;7.53;;
52170;SDS011;38689;47.552;18.820;2023-09-19T02:10:46;12.15;;;7.80;;
52170;SDS011;38689;47.552;18.820;2023-09-19T02:13:16;13.27;;;7.15;;
52170;SDS011;38689;47.552;18.820;2023-09-19T02:15:44;12.23;;;7.87;;
52170;SDS011;38689;47.552;18.820;2023-09-19T02:18:12;11.32;;;7.60;;
52170;SDS011;38689;47.552;18.820;2023-09-19T02:20:43;16.75;;;8.23;;
52170;SDS011;38689;47.552;18.820;2023-09-19T02:23:10;14.50;;;7.97;;
52170;SDS011;38689;47.552;18.820;2023-09-19T02:25:36;12.18;;;7.43;;
52170;SDS011;38689;47.552;18.820;2023-09-19T02:28:03;13.77;;;7.90;;
52170;SDS011;38689;47.552;18.820;2023-09-19T02:30:31;14.98;;;7.90;;
52170;SDS011;38689;47.552;18.820;2023-09-19T02:32:58;11.80;;;7.68;;
52170;SDS011;38689;47.552;18.820;2023-09-19T02:35:27;12.98;;;7.65;;
52170;SDS011;38689;47.552;18.820;2023-09-19T02:37:53;11.93;;;7.47;;
52170;SDS011;38689;47.552;18.820;2023-09-19T02:40:19;11.23;;;7.70;;
52170;SDS011;38689;47.552;18.820;2023-09-19T02:42:46;13.27;;;7.78;;
52170;SDS011;38689;47.552;18.820;2023-09-19T02:45:14;12.15;;;7.50;;
52170;SDS011;38689;47.552;18.820;2023-09-19T02:47:43;10.98;;;8.07;;
52170;SDS011;38689;47.552;18.820;2023-09-19T02:50:09;11.00;;;7.95;;
52170;SDS011;38689;47.552;18.820;2023-09-19T02:52:44;12.07;;;7.43;;
52170;SDS011;38689;47.552;18.820;2023-09-19T02:57:49;12.77;;;7.95;;
52170;SDS011;38689;47.552;18.820;2023-09-19T03:00:17;13.38;;;8.15;;
52170;SDS011;38689;47.552;18.820;2023-09-19T03:02:53;12.18;;;8.13;;
52170;SDS011;38689;47.552;18.820;2023-09-19T03:07:46;14.75;;;8.32;;
52170;SDS011;38689;47.552;18.820;2023-09-19T03:10:20;13.10;;;8.32;;
52170;SDS011;38689;47.552;18.820;2023-09-19T03:12:47;13.70;;;8.05;;
52170;SDS011;38689;47.552;18.820;2023-09-19T03:15:13;16.77;;;8.75;;
52170;SDS011;38689;47.552;18.820;2023-09-19T03:17:44;16.02;;;8.10;;
52170;SDS011;38689;47.552;18.820;2023-09-19T03:20:10;14.73;;;8.18;;
52170;SDS011;38689;47.552;18.820;2023-09-19T03:22:38;13.25;;;8.30;;
52170;SDS011;38689;47.552;18.820;2023-09-19T03:25:06;12.43;;;7.95;;
52170;SDS011;38689;47.552;18.820;2023-09-19T03:27:34;13.65;;;8.02;;
52170;SDS011;38689;47.552;18.820;2023-09-19T03:30:00;15.23;;;7.93;;
52170;SDS011;38689;47.552;18.820;2023-09-19T03:32:31;13.75;;;8.30;;
52170;SDS011;38689;47.552;18.820;2023-09-19T03:34:56;13.27;;;8.32;;
52170;SDS011;38689;47.552;18.820;2023-09-19T03:37:22;12.50;;;8.00;;
52170;SDS011;38689;47.552;18.820;2023-09-19T03:39:48;14.52;;;8.10;;
52170;SDS011;38689;47.552;18.820;2023-09-19T03:42:14;12.00;;;7.62;;
52170;SDS011;38689;47.552;18.820;2023-09-19T03:44:40;14.35;;;7.68;;
52170;SDS011;38689;47.552;18.820;2023-09-19T03:47:06;9.05;;;6.60;;
52170;SDS011;38689;47.552;18.820;2023-09-19T03:49:32;9.70;;;4.57;;
52170;SDS011;38689;47.552;18.820;2023-09-19T03:51:59;7.28;;;3.55;;
52170;SDS011;38689;47.552;18.820;2023-09-19T03:54:25;6.50;;;3.00;;
52170;SDS011;38689;47.552;18.820;2023-09-19T03:56:51;4.35;;;2.20;;
52170;SDS011;38689;47.552;18.820;2023-09-19T03:59:17;5.30;;;2.30;;
52170;SDS011;38689;47.552;18.820;2023-09-19T04:01:44;3.87;;;1.95;;
52170;SDS011;38689;47.552;18.820;2023-09-19T04:04:09;3.83;;;1.80;;
52170;SDS011;38689;47.552;18.820;2023-09-19T04:06:36;3.53;;;1.48;;
52170;SDS011;38689;47.552;18.820;2023-09-19T04:09:03;3.15;;;1.60;;
52170;SDS011;38689;47.552;18.820;2023-09-19T04:11:30;4.43;;;1.60;;
52170;SDS011;38689;47.552;18.820;2023-09-19T04:13:56;3.47;;;1.60;;
52170;SDS011;38689;47.552;18.820;2023-09-19T04:16:26;3.05;;;1.50;;
52170;SDS011;38689;47.552;18.820;2023-09-19T04:18:52;3.65;;;1.55;;
52170;SDS011;38689;47.552;18.820;2023-09-19T04:21:18;2.55;;;1.58;;
52170;SDS011;38689;47.552;18.820;2023-09-19T04:24:03;2.85;;;1.30;;
52170;SDS011;38689;47.552;18.820;2023-09-19T04:26:30;1.62;;;1.08;;
52170;SDS011;38689;47.552;18.820;2023-09-19T04:28:56;3.10;;;1.20;;
52170;SDS011;38689;47.552;18.820;2023-09-19T04:31:24;3.37;;;1.10;;
52170;SDS011;38689;47.552;18.820;2023-09-19T04:33:51;2.05;;;1.20;;
52170;SDS011;38689;47.552;18.820;2023-09-19T04:36:18;2.17;;;1.15;;
52170;SDS011;38689;47.552;18.820;2023-09-19T04:38:46;4.03;;;1.20;;
52170;SDS011;38689;47.552;18.820;2023-09-19T04:41:12;2.33;;;1.27;;
52170;SDS011;38689;47.552;18.820;2023-09-19T04:43:40;1.92;;;1.05;;
52170;SDS011;38689;47.552;18.820;2023-09-19T04:46:07;1.45;;;1.20;;
52170;SDS011;38689;47.552;18.820;2023-09-19T04:48:34;1.65;;;0.90;;
52170;SDS011;38689;47.552;18.820;2023-09-19T04:51:00;1.30;;;0.85;;
52170;SDS011;38689;47.552;18.820;2023-09-19T04:53:26;1.65;;;0.90;;
52170;SDS011;38689;47.552;18.820;2023-09-19T04:55:53;1.60;;;0.90;;
52170;SDS011;38689;47.552;18.820;2023-09-19T04:58:21;2.37;;;0.80;;
52170;SDS011;38689;47.552;18.820;2023-09-19T05:00:48;2.25;;;0.80;;
52170;SDS011;38689;47.552;18.820;2023-09-19T05:03:16;1.05;;;0.80;;
52170;SDS011;38689;47.552;18.820;2023-09-19T05:05:43;2.05;;;0.80;;
52170;SDS011;38689;47.552;18.820;2023-09-19T05:08:09;1.83;;;0.82;;
52170;SDS011;38689;47.552;18.820;2023-09-19T05:10:35;1.35;;;0.70;;
52170;SDS011;38689;47.552;18.820;2023-09-19T05:13:05;1.58;;;0.90;;
52170;SDS011;38689;47.552;18.820;2023-09-19T05:15:30;1.50;;;0.80;;
52170;SDS011;38689;47.552;18.820;2023-09-19T05:17:57;1.48;;;0.70;;
52170;SDS011;38689;47.552;18.820;2023-09-19T05:20:24;1.30;;;0.68;;
52170;SDS011;38689;47.552;18.820;2023-09-19T05:22:58;1.05;;;0.60;;
52170;SDS011;38689;47.552;18.820;2023-09-19T05:25:33;1.02;;;0.62;;
52170;SDS011;38689;47.552;18.820;2023-09-19T05:28:02;1.30;;;0.70;;
52170;SDS011;38689;47.552;18.820;2023-09-19T05:30:31;1.45;;;0.80;;
52170;SDS011;38689;47.552;18.820;2023-09-19T05:32:58;1.98;;;0.80;;
52170;SDS011;38689;47.552;18.820;2023-09-19T05:35:24;2.10;;;0.70;;
52170;SDS011;38689;47.552;18.820;2023-09-19T05:37:51;2.15;;;0.80;;
52170;SDS011;38689;47.552;18.820;2023-09-19T05:40:19;2.28;;;0.70;;
52170;SDS011;38689;47.552;18.820;2023-09-19T05:42:45;1.62;;;0.80;;
52170;SDS011;38689;47.552;18.820;2023-09-19T05:45:13;1.90;;;0.77;;
52170;SDS011;38689;47.552;18.820;2023-09-19T05:47:39;1.55;;;0.85;;
52170;SDS011;38689;47.552;18.820;2023-09-19T05:50:11;2.15;;;0.88;;
52170;SDS011;38689;47.552;18.820;2023-09-19T05:52:37;1.92;;;1.10;;
52170;SDS011;38689;47.552;18.820;2023-09-19T05:55:04;2.97;;;0.80;;
52170;SDS011;38689;47.552;18.820;2023-09-19T05:57:32;1.27;;;0.80;;
52170;SDS011;38689;47.552;18.820;2023-09-19T05:59:59;2.62;;;0.80;;
52170;SDS011;38689;47.552;18.820;2023-09-19T06:02:25;1.50;;;0.90;;
52170;SDS011;38689;47.552;18.820;2023-09-19T06:04:54;1.77;;;0.80;;
52170;SDS011;38689;47.552;18.820;2023-09-19T06:07:21;1.60;;;0.82;;
52170;SDS011;38689;47.552;18.820;2023-09-19T06:09:48;1.45;;;0.90;;
52170;SDS011;38689;47.552;18.820;2023-09-19T06:12:14;1.90;;;0.80;;
52170;SDS011;38689;47.552;18.820;2023-09-19T06:14:43;1.83;;;1.00;;
52170;SDS011;38689;47.552;18.820;2023-09-19T06:17:09;2.30;;;0.90;;
52170;SDS011;38689;47.552;18.820;2023-09-19T06:19:36;1.90;;;0.90;;
52170;SDS011;38689;47.552;18.820;2023-09-19T06:22:02;1.73;;;1.00;;
52170;SDS011;38689;47.552;18.820;2023-09-19T06:24:29;2.47;;;0.85;;
52170;SDS011;38689;47.552;18.820;2023-09-19T06:26:56;0.82;;;0.70;;
52170;SDS011;38689;47.552;18.820;2023-09-19T06:29:23;1.55;;;1.00;;
52170;SDS011;38689;47.552;18.820;2023-09-19T06:31:49;1.62;;;1.00;;
52170;SDS011;38689;47.552;18.820;2023-09-19T06:34:15;1.48;;;0.90;;
52170;SDS011;38689;47.552;18.820;2023-09-19T06:36:41;1.92;;;1.00;;
52170;SDS011;38689;47.552;18.820;2023-09-19T06:39:07;1.83;;;1.10;;
52170;SDS011;38689;47.552;18.820;2023-09-19T06:41:39;1.55;;;0.80;;
52170;SDS011;38689;47.552;18.820;2023-09-19T06:44:07;2.70;;;1.00;;
52170;SDS011;38689;47.552;18.820;2023-09-19T06:46:33;2.08;;;1.00;;
52170;SDS011;38689;47.552;18.820;2023-09-19T06:49:01;2.65;;;1.00;;
52170;SDS011;38689;47.552;18.820;2023-09-19T06:51:32;3.10;;;0.98;;
52170;SDS011;38689;47.552;18.820;2023-09-19T06:54:01;1.45;;;0.98;;
52170;SDS011;38689;47.552;18.820;2023-09-19T06:56:27;2.05;;;1.12;;
52170;SDS011;38689;47.552;18.820;2023-09-19T06:58:53;1.20;;;0.75;;
52170;SDS011;38689;47.552;18.820;2023-09-19T07:01:19;1.90;;;0.82;;
52170;SDS011;38689;47.552;18.820;2023-09-19T07:03:45;2.40;;;0.90;;
52170;SDS011;38689;47.552;18.820;2023-09-19T07:06:11;1.77;;;0.90;;
52170;SDS011;38689;47.552;18.820;2023-09-19T07:08:37;1.17;;;0.80;;
52170;SDS011;38689;47.552;18.820;2023-09-19T07:11:04;2.17;;;0.80;;
52170;SDS011;38689;47.552;18.820;2023-09-19T07:13:33;2.05;;;0.98;;
52170;SDS011;38689;47.552;18.820;2023-09-19T07:15:59;2.95;;;0.90;;
52170;SDS011;38689;47.552;18.820;2023-09-19T07:18:25;1.58;;;0.95;;
52170;SDS011;38689;47.552;18.820;2023-09-19T07:20:51;1.73;;;0.77;;
52170;SDS011;38689;47.552;18.820;2023-09-19T07:23:21;1.83;;;0.90;;
52170;SDS011;38689;47.552;18.820;2023-09-19T07:25:51;1.70;;;1.00;;
52170;SDS011;38689;47.552;18.820;2023-09-19T08:10:54;1.87;;;1.20;;
52170;SDS011;38689;47.552;18.820;2023-09-19T08:13:24;2.10;;;1.10;;
52170;SDS011;38689;47.552;18.820;2023-09-19T08:16:21;2.92;;;1.00;;
52170;SDS011;38689;47.552;18.820;2023-09-19T08:18:54;2.30;;;1.15;;
52170;SDS011;38689;47.552;18.820;2023-09-19T08:21:40;2.22;;;1.10;;
52170;SDS011;38689;47.552;18.820;2023-09-19T08:24:06;2.00;;;1.10;;
52170;SDS011;38689;47.552;18.820;2023-09-19T08:26:34;1.73;;;1.20;;
52170;SDS011;38689;47.552;18.820;2023-09-19T08:29:21;1.77;;;1.12;;
52170;SDS011;38689;47.552;18.820;2023-09-19T08:31:56;2.83;;;1.20;;
52170;SDS011;38689;47.552;18.820;2023-09-19T08:34:23;2.45;;;1.05;;
52170;SDS011;38689;47.552;18.820;2023-09-19T08:37:09;1.52;;;1.10;;
52170;SDS011;38689;47.552;18.820;2023-09-19T08:39:36;1.37;;;0.98;;
52170;SDS011;38689;47.552;18.820;2023-09-19T08:42:48;2.72;;;1.10;;
52170;SDS011;38689;47.552;18.820;2023-09-19T08:45:34;2.58;;;1.20;;
52170;SDS011;38689;47.552;18.820;2023-09-19T08:57:39;2.17;;;1.20;;
52170;SDS011;38689;47.552;18.820;2023-09-19T09:00:15;1.90;;;1.00;;
